Time;durP1;ratioP1;P1;durP2;ratioP2;P2;SDS_P1;SDS_P2;PMS_P1;PMS_P2;Temp;Humidity;BMP_temperature;BMP_pressure;BME280_temperature;BME280_humidity;BME280_pressure;Samples;Min_cycle;Max_cycle;Signal;HPM_P1;HPM_P2
2022/05/03 00:02:30;;;;;;;16.15;6.65;;;10.80;95.40;;;;;;6207246;28;20057;-83
2022/05/03 00:05:39;;;;;;;9.20;6.20;;;10.80;95.40;;;;;;6206085;28;20104;-83
2022/05/03 00:08:45;;;;;;;8.57;6.55;;;10.80;95.60;;;;;;6230783;28;20100;-83
2022/05/03 00:11:52;;;;;;;12.50;7.35;;;10.70;95.50;;;;;;6230454;28;20042;-82
2022/05/03 00:14:57;;;;;;;9.98;7.28;;;10.60;95.40;;;;;;6231286;28;20041;-83
2022/05/03 00:17:59;;;;;;;11.60;9.10;;;10.60;95.50;;;;;;6229811;28;20050;-83
2022/05/03 00:21:02;;;;;;;10.80;7.18;;;10.50;95.60;;;;;;6229477;28;20124;-83
2022/05/03 00:24:05;;;;;;;10.18;7.50;;;10.50;95.90;;;;;;6231052;28;20040;-81
2022/05/03 00:27:09;;;;;;;11.07;6.88;;;10.60;95.90;;;;;;6232027;28;20046;-82
2022/05/03 00:30:12;;;;;;;9.93;7.30;;;10.50;95.90;;;;;;6231219;28;20046;-83
2022/05/03 00:33:16;;;;;;;9.82;7.15;;;10.50;95.70;;;;;;6231290;28;20050;-84
2022/05/03 00:36:17;;;;;;;11.57;7.60;;;10.50;95.70;;;;;;6231254;28;20057;-83
2022/05/03 00:39:19;;;;;;;12.18;7.60;;;10.50;95.80;;;;;;6230541;28;20057;-84
2022/05/03 00:42:25;;;;;;;15.30;6.72;;;10.50;95.80;;;;;;6229628;28;20515;-82
2022/05/03 00:45:36;;;;;;;8.48;5.57;;;10.40;95.80;;;;;;6227064;28;20066;-81
2022/05/03 00:49:08;;;;;;;9.02;6.72;;;10.40;95.80;;;;;;6228212;28;20132;-82
2022/05/03 00:52:18;;;;;;;11.57;7.40;;;10.30;95.80;;;;;;6228146;28;20054;-82
2022/05/03 00:55:52;;;;;;;9.95;6.28;;;10.30;95.80;;;;;;6228109;28;20164;-81
2022/05/03 00:59:02;;;;;;;8.45;6.45;;;10.30;95.80;;;;;;6216218;28;20053;-82
2022/05/03 01:02:06;;;;;;;9.73;6.43;;;10.20;95.70;;;;;;6228073;28;20053;-81
2022/05/03 01:05:10;;;;;;;11.10;6.97;;;10.20;95.80;;;;;;6227824;28;20050;-81
2022/05/03 01:08:20;;;;;;;7.65;6.00;;;10.00;95.80;;;;;;6228338;28;20057;-82
2022/05/03 01:11:32;;;;;;;8.55;5.95;;;10.10;95.90;;;;;;6227443;28;20523;-81
2022/05/03 01:14:48;;;;;;;8.07;6.55;;;10.00;95.80;;;;;;6227936;28;20045;-80
2022/05/03 01:18:03;;;;;;;7.63;5.90;;;10.00;95.80;;;;;;6225657;28;20046;-81
2022/05/03 01:21:13;;;;;;;7.70;6.05;;;10.00;95.90;;;;;;6225693;28;20428;-80
2022/05/03 01:24:37;;;;;;;8.20;6.22;;;9.90;95.80;;;;;;6225598;28;20077;-80
2022/05/03 01:28:01;;;;;;;8.30;6.22;;;9.90;95.90;;;;;;6226555;28;20099;-82
2022/05/03 01:31:10;;;;;;;8.15;6.20;;;9.80;95.90;;;;;;6221634;28;20097;-80
2022/05/03 01:34:15;;;;;;;11.93;7.00;;;9.80;95.90;;;;;;6226878;28;20045;-81
2022/05/03 01:37:43;;;;;;;10.73;6.88;;;9.80;96.00;;;;;;6226228;28;20056;-83
2022/05/03 01:41:00;;;;;;;10.65;6.78;;;9.70;96.00;;;;;;6226341;28;20046;-82
2022/05/03 01:44:15;;;;;;;14.32;6.78;;;9.70;96.00;;;;;;6226357;28;20491;-81
2022/05/03 01:47:27;;;;;;;9.00;6.82;;;9.70;95.80;;;;;;6226694;28;20052;-81
2022/05/03 01:50:38;;;;;;;8.85;5.88;;;9.60;95.80;;;;;;6225179;28;20054;-81
2022/05/03 01:53:45;;;;;;;8.02;5.93;;;9.60;95.80;;;;;;6224765;28;20045;-81
2022/05/03 01:56:57;;;;;;;12.00;6.25;;;9.60;95.80;;;;;;6224201;28;20575;-81
2022/05/03 02:00:06;;;;;;;9.40;6.03;;;9.60;95.90;;;;;;6223711;28;20601;-80
2022/05/03 02:03:25;;;;;;;8.88;6.60;;;9.60;95.90;;;;;;6223517;28;20054;-80
2022/05/03 02:06:42;;;;;;;9.48;6.43;;;9.60;96.00;;;;;;6225086;28;20176;-81
2022/05/03 02:10:04;;;;;;;7.93;5.65;;;9.50;96.00;;;;;;6224462;28;20048;-80
2022/05/03 02:13:18;;;;;;;9.80;6.15;;;9.40;95.90;;;;;;6224060;28;20128;-81
2022/05/03 02:16:27;;;;;;;12.57;6.95;;;9.40;95.90;;;;;;6224783;28;20049;-81
2022/05/03 02:19:51;;;;;;;7.97;6.45;;;9.30;96.10;;;;;;6225016;28;20057;-81
2022/05/03 02:23:05;;;;;;;10.15;6.18;;;9.30;96.10;;;;;;6225184;28;20061;-81
2022/05/03 02:26:29;;;;;;;9.38;6.13;;;9.20;96.00;;;;;;6224589;28;20046;-81
2022/05/03 02:29:39;;;;;;;11.32;6.03;;;9.20;96.10;;;;;;6224152;28;20507;-81
2022/05/03 02:32:50;;;;;;;8.18;6.22;;;9.20;96.10;;;;;;6235664;22;20053;-79
2022/05/03 02:35:56;;;;;;;8.05;6.43;;;9.20;96.10;;;;;;6214904;28;20046;-81
2022/05/03 02:39:03;;;;;;;9.32;6.43;;;9.10;96.10;;;;;;6211000;28;20578;-80
2022/05/03 02:42:06;;;;;;;10.07;7.22;;;9.00;96.10;;;;;;6214415;28;20511;-79
2022/05/03 02:45:09;;;;;;;9.10;6.57;;;9.00;96.20;;;;;;6213871;28;20065;-81
2022/05/03 02:48:14;;;;;;;13.05;6.93;;;9.00;96.20;;;;;;6215106;28;20081;-82
2022/05/03 02:51:23;;;;;;;8.27;6.07;;;9.00;96.20;;;;;;6213931;28;20054;-79
2022/05/03 02:54:37;;;;;;;11.85;7.05;;;9.00;96.20;;;;;;6213992;28;20173;-79
2022/05/03 02:57:48;;;;;;;8.13;6.20;;;9.00;96.30;;;;;;6213425;28;20078;-80
2022/05/03 03:04:21;;;;;;;10.57;6.60;;;8.90;96.10;;;;;;6213369;28;20039;-80
2022/05/03 03:07:26;;;;;;;23.95;9.05;;;8.80;96.10;;;;;;6213936;28;20448;-82
2022/05/03 03:10:32;;;;;;;10.82;6.97;;;8.80;96.10;;;;;;6217659;28;20118;-80
2022/05/03 03:13:50;;;;;;;9.05;6.20;;;8.80;96.40;;;;;;6218125;28;20046;-80
2022/05/03 03:16:55;;;;;;;11.38;6.97;;;8.80;96.10;;;;;;6217276;28;20070;-80
2022/05/03 03:20:04;;;;;;;9.60;6.93;;;8.70;96.10;;;;;;6214702;28;20049;-80
2022/05/03 03:23:09;;;;;;;15.32;7.55;;;8.70;96.00;;;;;;6218566;28;20057;-80
2022/05/03 03:26:12;;;;;;;11.55;6.55;;;8.70;96.10;;;;;;6214461;28;20138;-80
2022/05/03 03:29:14;;;;;;;9.93;6.43;;;8.70;96.10;;;;;;6215034;28;20569;-81
2022/05/03 03:32:19;;;;;;;12.95;7.47;;;8.60;96.10;;;;;;6213042;28;20066;-80
2022/05/03 03:35:21;;;;;;;9.98;6.72;;;8.60;96.10;;;;;;6211911;28;20046;-80
2022/05/03 03:38:33;;;;;;;8.18;5.75;;;8.60;96.10;;;;;;6213735;28;20072;-79
2022/05/03 03:41:35;;;;;;;12.30;6.32;;;8.60;95.90;;;;;;6211948;28;20056;-80
2022/05/03 03:44:36;;;;;;;10.23;6.38;;;8.60;96.00;;;;;;6211464;28;20129;-79
2022/05/03 03:47:39;;;;;;;11.50;8.55;;;8.60;96.00;;;;;;6211320;28;20070;-79
2022/05/03 03:50:44;;;;;;;15.07;7.70;;;8.60;96.10;;;;;;6212093;28;20054;-79
2022/05/03 03:53:48;;;;;;;9.57;6.43;;;8.70;96.00;;;;;;6211830;28;20522;-79
2022/05/03 03:56:51;;;;;;;9.13;6.75;;;8.70;95.90;;;;;;6212323;28;20043;-79
2022/05/03 03:59:53;;;;;;;10.55;7.20;;;8.70;95.80;;;;;;6210465;28;20089;-80
2022/05/03 04:02:56;;;;;;;12.00;6.60;;;8.70;95.80;;;;;;6210711;28;20182;-79
2022/05/03 04:05:58;;;;;;;13.30;6.85;;;8.80;95.90;;;;;;6213783;28;20053;-79
2022/05/03 04:09:01;;;;;;;9.50;6.57;;;8.80;95.90;;;;;;6211118;28;20053;-79
2022/05/03 04:12:05;;;;;;;10.68;7.30;;;9.00;95.90;;;;;;6214136;28;20636;-79
2022/05/03 04:15:08;;;;;;;14.10;7.50;;;9.00;96.00;;;;;;6214771;28;20053;-79
2022/05/03 04:18:10;;;;;;;10.05;7.13;;;9.10;96.00;;;;;;6215103;28;20053;-79
2022/05/03 04:21:16;;;;;;;9.85;7.00;;;9.20;95.90;;;;;;6213808;28;20078;-80
2022/05/03 04:24:19;;;;;;;10.70;6.20;;;9.30;95.90;;;;;;6214940;28;20530;-79
2022/05/03 04:27:22;;;;;;;7.75;6.22;;;9.40;95.70;;;;;;6215271;28;20042;-79
2022/05/03 04:30:24;;;;;;;8.50;6.45;;;9.50;95.60;;;;;;6215209;28;20051;-80
2022/05/03 04:33:26;;;;;;;11.52;6.40;;;9.60;95.50;;;;;;6213951;28;20042;-79
2022/05/03 04:36:29;;;;;;;9.13;6.10;;;9.70;95.40;;;;;;6214960;28;20069;-79
2022/05/03 04:39:32;;;;;;;7.97;5.85;;;9.70;95.30;;;;;;6213180;28;20042;-79
2022/05/03 04:42:34;;;;;;;11.82;7.40;;;9.70;95.40;;;;;;6214646;28;20060;-79
2022/05/03 04:45:35;;;;;;;13.15;6.85;;;9.90;95.40;;;;;;6213313;28;20110;-80
2022/05/03 04:48:37;;;;;;;7.32;5.68;;;10.30;95.00;;;;;;6212534;28;20060;-79
2022/05/03 04:51:39;;;;;;;10.63;6.55;;;10.60;94.40;;;;;;6213853;28;20508;-80
2022/05/03 04:54:42;;;;;;;14.15;6.78;;;10.70;94.30;;;;;;6215905;28;20140;-79
2022/05/03 04:57:44;;;;;;;12.43;7.28;;;10.80;94.20;;;;;;6215117;28;20053;-80
2022/05/03 05:00:46;;;;;;;12.38;6.53;;;10.80;94.20;;;;;;6217529;28;20042;-79
2022/05/03 05:03:48;;;;;;;8.93;5.65;;;10.90;94.30;;;;;;6217401;28;20523;-79
2022/05/03 05:06:50;;;;;;;9.02;5.80;;;11.10;94.20;;;;;;6220745;28;20065;-79
2022/05/03 05:13:12;;;;;;;26.27;7.63;;;11.50;93.90;;;;;;6217551;28;20054;-80
2022/05/03 05:16:14;;;;;;;32.25;8.73;;;11.90;93.60;;;;;;6216405;28;20130;-81
2022/05/03 05:19:16;;;;;;;24.02;7.32;;;12.30;93.00;;;;;;6215540;28;20050;-80
2022/05/03 05:22:18;;;;;;;9.63;6.18;;;12.70;92.50;;;;;;6217658;28;20077;-80
2022/05/03 05:25:21;;;;;;;18.60;6.20;;;12.90;92.20;;;;;;6214547;28;20069;-80
2022/05/03 05:28:24;;;;;;;12.23;7.18;;;13.00;92.10;;;;;;6216802;28;20050;-79
2022/05/03 05:31:26;;;;;;;6.93;5.20;;;13.20;92.10;;;;;;6212381;28;20057;-80
2022/05/03 05:34:28;;;;;;;11.68;6.10;;;13.40;91.90;;;;;;6216212;28;20140;-80
2022/05/03 05:37:29;;;;;;;10.55;5.40;;;13.80;91.50;;;;;;6211612;28;20066;-79
2022/05/03 05:40:32;;;;;;;13.32;7.03;;;14.40;90.80;;;;;;6214117;28;20062;-80
2022/05/03 05:43:37;;;;;;;13.65;6.07;;;15.20;90.00;;;;;;6213838;28;20097;-80
2022/05/03 05:46:38;;;;;;;10.05;5.60;;;16.60;86.60;;;;;;6213751;28;20042;-80
2022/05/03 05:49:40;;;;;;;17.10;5.35;;;18.00;81.80;;;;;;6211300;28;20050;-79
2022/05/03 05:56:05;;;;;;;12.15;4.78;;;19.30;76.30;;;;;;6213820;28;20043;-81
2022/05/03 05:59:07;;;;;;;7.70;5.28;;;19.10;76.50;;;;;;6210608;28;20078;-80
2022/05/03 06:02:08;;;;;;;11.38;5.10;;;19.20;76.70;;;;;;6213608;28;20058;-80
2022/05/03 06:05:10;;;;;;;18.63;9.43;;;19.70;75.50;;;;;;6213515;28;20092;-80
2022/05/03 06:08:12;;;;;;;7.88;4.90;;;20.20;74.30;;;;;;6209810;28;20042;-81
2022/05/03 06:11:16;;;;;;;7.97;5.25;;;20.40;73.20;;;;;;6213239;28;20078;-81
2022/05/03 06:14:18;;;;;;;7.82;6.05;;;20.60;72.20;;;;;;6213046;28;20637;-80
2022/05/03 06:17:19;;;;;;;5.55;4.53;;;20.90;70.60;;;;;;6214463;28;20052;-80
2022/05/03 06:20:21;;;;;;;8.93;4.72;;;21.20;68.80;;;;;;6213062;28;20101;-81
2022/05/03 06:23:23;;;;;;;7.20;5.03;;;21.70;67.80;;;;;;6214382;28;20069;-80
2022/05/03 06:26:26;;;;;;;8.98;4.68;;;22.30;66.70;;;;;;6213525;28;20069;-82
2022/05/03 06:29:28;;;;;;;12.65;5.57;;;23.20;64.00;;;;;;6214643;28;20078;-81
2022/05/03 06:32:30;;;;;;;6.30;4.85;;;24.20;61.40;;;;;;6214144;28;20038;-81
2022/05/03 06:35:31;;;;;;;9.25;5.60;;;25.20;58.70;;;;;;6215706;28;20063;-80
2022/05/03 06:38:33;;;;;;;6.97;4.93;;;26.00;54.90;;;;;;6216221;28;20050;-82
2022/05/03 06:41:36;;;;;;;12.88;4.95;;;26.80;52.70;;;;;;6210026;28;20074;-79
2022/05/03 06:44:38;;;;;;;7.90;5.10;;;27.40;50.20;;;;;;6210465;28;20052;-79
2022/05/03 06:47:40;;;;;;;9.10;5.18;;;27.80;48.90;;;;;;6214866;28;20042;-81
2022/05/03 06:50:42;;;;;;;6.15;4.85;;;28.30;47.20;;;;;;6216004;28;20053;-81
2022/05/03 06:53:44;;;;;;;9.90;4.88;;;28.90;46.50;;;;;;6214739;28;20076;-80
2022/05/03 06:56:47;;;;;;;11.07;5.32;;;29.70;44.80;;;;;;6171726;28;20180;-80
2022/05/03 06:59:49;;;;;;;5.55;4.50;;;30.50;43.60;;;;;;6193471;28;20073;-82
2022/05/03 07:02:51;;;;;;;7.30;4.60;;;31.30;41.90;;;;;;6210293;28;20057;-81
2022/05/03 07:05:53;;;;;;;7.57;4.68;;;32.00;40.70;;;;;;6194733;28;20562;-80
2022/05/03 07:08:55;;;;;;;5.38;3.88;;;32.70;39.50;;;;;;6184877;28;20042;-81
2022/05/03 07:11:58;;;;;;;6.75;4.55;;;33.20;38.40;;;;;;6185543;28;20043;-82
2022/05/03 07:15:00;;;;;;;9.52;4.47;;;33.70;37.20;;;;;;6185447;28;20062;-80
2022/05/03 07:24:41;;;;;;;4.60;3.65;;;32.20;37.30;;;;;;6188868;28;20479;-81
2022/05/03 07:27:45;;;;;;;6.00;4.72;;;30.60;39.30;;;;;;6199797;28;20038;-82
2022/05/03 07:30:47;;;;;;;5.78;4.35;;;29.40;40.80;;;;;;6209002;28;20054;-81
2022/05/03 07:33:49;;;;;;;8.40;4.85;;;28.50;42.10;;;;;;6205815;28;20042;-81
2022/05/03 07:36:51;;;;;;;4.43;3.95;;;27.90;43.30;;;;;;6207178;28;20039;-81
2022/05/03 07:39:52;;;;;;;9.48;4.35;;;27.70;44.20;;;;;;6207844;28;20508;-80
2022/05/03 07:42:55;;;;;;;11.30;6.40;;;27.40;43.80;;;;;;6210473;28;20047;-81
2022/05/03 07:45:57;;;;;;;5.95;4.13;;;26.70;45.30;;;;;;6210704;28;20118;-82
2022/05/03 07:48:59;;;;;;;9.50;4.45;;;27.10;45.40;;;;;;6206480;28;20054;-80
2022/05/03 07:52:01;;;;;;;6.78;4.65;;;28.00;44.60;;;;;;6206407;28;20046;-81
2022/05/03 07:55:05;;;;;;;8.02;4.10;;;29.60;41.70;;;;;;6204928;28;20501;-79
2022/05/03 07:58:08;;;;;;;4.95;3.63;;;31.30;40.40;;;;;;6206012;28;20125;-80
2022/05/03 08:01:10;;;;;;;6.13;4.07;;;32.60;37.00;;;;;;6204109;28;20048;-81
2022/05/03 08:04:12;;;;;;;5.25;3.42;;;33.40;35.20;;;;;;6207919;28;20050;-79
2022/05/03 08:07:14;;;;;;;3.92;3.53;;;33.20;35.60;;;;;;6206102;28;20729;-81
2022/05/03 08:10:15;;;;;;;5.30;3.47;;;32.90;35.70;;;;;;6206516;28;20053;-82
2022/05/03 08:13:19;;;;;;;6.88;3.33;;;33.00;36.70;;;;;;6204481;28;20053;-81
2022/05/03 08:16:21;;;;;;;5.15;3.92;;;32.80;35.90;;;;;;6209738;28;20051;-80
2022/05/03 08:19:23;;;;;;;5.38;3.88;;;32.80;35.40;;;;;;6208663;28;20550;-81
2022/05/03 08:22:25;;;;;;;5.32;4.57;;;32.50;35.60;;;;;;6206992;28;20056;-81
2022/05/03 08:25:27;;;;;;;8.95;4.28;;;32.30;36.00;;;;;;6205821;28;20093;-85
2022/05/03 08:28:30;;;;;;;6.68;4.05;;;31.60;36.10;;;;;;6204051;28;20117;-84
2022/05/03 08:31:32;;;;;;;9.05;4.40;;;31.20;37.40;;;;;;6206909;28;20069;-81
2022/05/03 08:34:34;;;;;;;5.07;4.05;;;31.60;37.40;;;;;;6229307;23;20133;-85
2022/05/03 08:44:16;;;;;;;4.80;3.75;;;33.60;35.60;;;;;;6180743;28;20050;-85
2022/05/03 08:47:19;;;;;;;4.68;4.22;;;34.50;34.70;;;;;;6180230;28;20059;-82
2022/05/03 08:50:22;;;;;;;6.68;3.80;;;34.10;34.70;;;;;;6178053;28;20518;-85
2022/05/03 08:53:24;;;;;;;7.25;3.97;;;33.80;35.80;;;;;;6179659;28;20125;-82
2022/05/03 08:56:26;;;;;;;6.78;3.90;;;34.30;34.50;;;;;;6179826;28;20121;-82
2022/05/03 08:59:31;;;;;;;4.90;3.55;;;34.40;34.90;;;;;;6184711;28;20146;-86
2022/05/03 09:02:34;;;;;;;5.75;3.63;;;35.30;33.70;;;;;;6204141;28;20081;-85
2022/05/03 09:05:36;;;;;;;10.80;3.28;;;35.30;34.00;;;;;;6180009;28;20053;-81
2022/05/03 09:08:39;;;;;;;7.88;4.00;;;36.00;33.40;;;;;;6177291;28;20050;-84
2022/05/03 09:11:46;;;;;;;8.05;4.07;;;36.80;32.60;;;;;;6179067;28;20503;-81
2022/05/03 09:14:49;;;;;;;3.60;2.63;;;37.70;31.60;;;;;;6179836;28;20178;-83
2022/05/03 09:17:52;;;;;;;3.65;2.30;;;37.40;30.00;;;;;;6177910;28;20043;-81
2022/05/03 09:24:14;;;;;;;4.40;2.97;;;33.70;32.70;;;;;;6176977;28;20500;-82
2022/05/03 09:27:18;;;;;;;3.85;2.55;;;32.10;34.80;;;;;;6177868;28;20047;-82
2022/05/03 09:30:21;;;;;;;7.45;3.40;;;31.20;36.30;;;;;;6178873;28;20054;-80
2022/05/03 09:33:23;;;;;;;5.70;2.50;;;31.20;36.00;;;;;;6177170;28;20536;-82
2022/05/03 09:36:26;;;;;;;2.50;2.28;;;30.80;36.10;;;;;;6178011;28;20046;-82
2022/05/03 09:39:29;;;;;;;6.38;2.75;;;30.70;37.20;;;;;;6176231;28;20361;-81
2022/05/03 09:42:31;;;;;;;8.13;2.30;;;31.80;36.00;;;;;;6176913;28;20465;-80
2022/05/03 09:45:34;;;;;;;5.57;2.45;;;32.50;35.00;;;;;;6177390;28;20047;-80
2022/05/03 09:48:51;;;;;;;3.05;1.88;;;33.40;34.10;;;;;;6177829;28;20055;-84
2022/05/03 09:51:53;;;;;;;6.37;2.47;;;34.00;33.50;;;;;;6178023;28;20053;-83
2022/05/03 09:54:59;;;;;;;2.80;2.03;;;34.30;32.70;;;;;;6177652;28;20061;-83
2022/05/03 09:58:02;;;;;;;3.53;2.20;;;32.90;33.80;;;;;;6194920;28;20045;-81
2022/05/03 10:01:06;;;;;;;3.83;2.30;;;31.50;34.80;;;;;;6206591;28;20129;-82
2022/05/03 10:04:09;;;;;;;2.90;2.10;;;30.60;36.60;;;;;;6199898;28;20065;-85
2022/05/03 10:07:11;;;;;;;3.63;1.85;;;30.00;36.50;;;;;;6200979;28;20046;-80
2022/05/03 10:10:15;;;;;;;3.72;2.40;;;29.20;37.90;;;;;;6200371;28;20059;-81
2022/05/03 10:13:18;;;;;;;2.88;2.13;;;28.80;39.10;;;;;;6202493;28;20447;-84
2022/05/03 10:23:04;;;;;;;4.05;2.53;;;29.00;39.80;;;;;;6178344;28;20051;-84
2022/05/03 10:26:08;;;;;;;6.13;2.92;;;28.50;40.60;;;;;;6175349;28;20194;-83
2022/05/03 10:29:11;;;;;;;3.33;2.25;;;28.60;41.60;;;;;;6176165;28;20094;-84
2022/05/03 10:32:17;;;;;;;3.80;2.20;;;28.90;40.60;;;;;;6174488;28;20476;-83
2022/05/03 10:35:34;;;;;;;5.28;1.48;;;28.90;39.00;;;;;;6175518;28;20050;-83
2022/05/03 10:38:38;;;;;;;2.65;1.50;;;28.20;39.40;;;;;;6177795;28;20497;-82
2022/05/03 10:41:53;;;;;;;2.40;1.77;;;28.00;40.40;;;;;;6180148;28;20051;-85
2022/05/03 10:45:06;;;;;;;4.10;1.70;;;28.00;40.20;;;;;;6177536;28;20055;-84
2022/05/03 10:48:25;;;;;;;3.22;1.60;;;28.20;41.30;;;;;;6180458;28;20067;-83
2022/05/03 10:51:26;;;;;;;3.03;1.80;;;28.40;39.40;;;;;;6177935;28;20055;-82
2022/05/03 10:54:29;;;;;;;7.15;1.60;;;28.80;40.20;;;;;;6200238;28;20447;-82
2022/05/03 10:57:31;;;;;;;2.63;1.50;;;29.30;39.30;;;;;;6193532;28;20083;-83
2022/05/03 11:01:01;;;;;;;3.70;1.55;;;29.30;36.80;;;;;;6176746;28;20055;-80
2022/05/03 11:04:11;;;;;;;4.93;1.50;;;29.00;35.90;;;;;;6177350;28;20121;-84
2022/05/03 11:07:23;;;;;;;3.05;1.77;;;28.80;35.90;;;;;;6177541;28;20672;-83
2022/05/03 11:10:41;;;;;;;3.08;1.65;;;28.50;37.60;;;;;;6179918;28;20062;-83
2022/05/03 11:13:43;;;;;;;1.50;1.15;;;28.40;37.90;;;;;;6156016;28;20051;-81
2022/05/03 11:16:47;;;;;;;1.90;1.30;;;28.90;38.20;;;;;;6153565;28;20532;-83
2022/05/03 11:19:53;;;;;;;1.58;1.05;;;29.60;37.50;;;;;;6152112;28;20046;-82
2022/05/03 11:22:55;;;;;;;1.83;1.35;;;29.40;36.80;;;;;;6152986;28;20421;-82
2022/05/03 11:25:56;;;;;;;2.83;1.10;;;28.80;38.70;;;;;;6159162;28;20051;-83
2022/05/03 11:28:59;;;;;;;1.80;1.25;;;29.00;38.60;;;;;;6179521;28;20043;-84
2022/05/03 11:32:02;;;;;;;2.53;1.38;;;29.20;38.10;;;;;;6185356;28;20047;-83
2022/05/03 11:35:08;;;;;;;1.65;1.20;;;28.90;36.40;;;;;;6185735;28;20058;-81
2022/05/03 11:38:12;;;;;;;5.03;1.30;;;28.00;37.50;;;;;;6184643;28;20051;-84
2022/05/03 11:41:14;;;;;;;2.17;1.23;;;27.90;38.00;;;;;;6184827;28;20047;-83
2022/05/03 11:44:17;;;;;;;1.92;1.27;;;27.80;36.60;;;;;;6184040;28;20047;-82
2022/05/03 11:47:18;;;;;;;3.22;1.17;;;27.90;36.50;;;;;;6183325;28;20051;-82
2022/05/03 11:57:02;;;;;;;5.80;1.30;;;28.20;38.10;;;;;;6182155;28;20066;-83
2022/05/03 12:00:06;;;;;;;1.50;1.20;;;28.60;37.20;;;;;;6181485;28;20115;-83
2022/05/03 12:03:08;;;;;;;7.15;1.23;;;28.60;36.70;;;;;;6182223;28;20065;-84
2022/05/03 12:06:12;;;;;;;2.30;1.27;;;28.90;37.20;;;;;;6177967;28;20152;-84
2022/05/03 12:09:17;;;;;;;2.30;1.40;;;29.40;35.60;;;;;;6179579;28;20113;-83
2022/05/03 12:15:46;;;;;;;6.32;1.00;;;29.30;35.50;;;;;;6157797;28;20039;-81
2022/05/03 12:18:48;;;;;;;3.67;1.00;;;29.50;33.60;;;;;;6158344;29;20043;-82
2022/05/03 12:21:51;;;;;;;1.83;0.95;;;29.90;34.50;;;;;;6155771;28;20517;-81
2022/05/03 12:24:53;;;;;;;1.65;0.90;;;30.10;32.70;;;;;;6159118;28;20055;-83
2022/05/03 12:27:55;;;;;;;9.00;1.23;;;29.90;34.10;;;;;;6167189;28;20105;-85
2022/05/03 12:30:58;;;;;;;1.23;0.82;;;30.50;33.50;;;;;;6185385;28;20137;-83
2022/05/03 12:34:01;;;;;;;1.48;0.82;;;31.00;32.70;;;;;;6207044;28;20085;-83
2022/05/03 12:37:05;;;;;;;3.25;0.93;;;31.50;31.70;;;;;;6193883;28;20051;-82
2022/05/03 12:40:08;;;;;;;2.25;0.65;;;31.60;31.00;;;;;;6209807;28;20050;-80
2022/05/03 12:43:12;;;;;;;4.68;1.20;;;31.20;30.80;;;;;;6201600;28;20361;-83
2022/05/03 12:46:14;;;;;;;4.20;1.30;;;30.40;30.80;;;;;;6182443;28;20058;-83
2022/05/03 12:49:16;;;;;;;1.40;0.93;;;29.70;32.10;;;;;;6181388;28;20043;-83
2022/05/03 12:52:20;;;;;;;1.33;1.00;;;29.20;33.20;;;;;;6179108;28;20195;-84
2022/05/03 12:55:21;;;;;;;1.98;0.75;;;29.30;34.20;;;;;;6181033;28;20053;-85
2022/05/03 12:58:22;;;;;;;1.80;1.40;;;29.50;34.10;;;;;;6181483;28;20140;-85
2022/05/03 13:01:25;;;;;;;1.15;0.90;;;29.70;34.10;;;;;;6182052;28;20051;-85
2022/05/03 13:04:29;;;;;;;2.58;1.23;;;29.80;34.20;;;;;;6180425;28;20184;-84
2022/05/03 13:07:33;;;;;;;2.03;1.00;;;30.00;33.50;;;;;;6181686;28;20420;-84
2022/05/03 13:10:35;;;;;;;1.52;1.02;;;30.00;33.90;;;;;;6181983;28;20050;-83
2022/05/03 13:13:36;;;;;;;1.63;1.05;;;30.30;34.20;;;;;;6178119;28;20042;-84
2022/05/03 13:16:39;;;;;;;3.72;1.55;;;30.30;34.00;;;;;;6184046;28;20138;-83
2022/05/03 13:19:41;;;;;;;1.70;1.23;;;30.30;33.30;;;;;;6182052;28;20042;-83
2022/05/03 13:22:44;;;;;;;4.72;1.77;;;30.10;33.90;;;;;;6182932;28;20077;-82
2022/05/03 13:25:46;;;;;;;3.13;1.92;;;29.90;35.60;;;;;;6181996;28;20074;-83
2022/05/03 13:28:49;;;;;;;5.25;2.53;;;29.80;37.20;;;;;;6184216;28;20047;-84
2022/05/03 13:31:51;;;;;;;2.50;1.83;;;29.60;37.60;;;;;;6181835;28;20050;-83
2022/05/03 13:34:53;;;;;;;5.53;2.10;;;29.40;38.10;;;;;;6179895;28;20513;-84
2022/05/03 13:41:17;;;;;;;2.70;1.80;;;28.70;37.40;;;;;;6180407;28;20414;-83
2022/05/03 13:44:19;;;;;;;7.03;2.75;;;28.30;38.60;;;;;;6180343;28;20074;-82
2022/05/03 13:47:21;;;;;;;6.50;2.22;;;28.20;39.20;;;;;;6180592;28;20047;-83
2022/05/03 13:50:22;;;;;;;4.80;1.95;;;28.20;39.30;;;;;;6180769;28;20055;-83
2022/05/03 13:53:26;;;;;;;3.75;2.03;;;28.20;39.90;;;;;;6176517;28;20051;-82
2022/05/03 13:56:28;;;;;;;1.73;1.58;;;28.10;38.80;;;;;;6174812;28;20043;-81
2022/05/03 13:59:30;;;;;;;2.40;1.80;;;27.90;38.40;;;;;;6180233;28;20050;-83
2022/05/03 14:02:32;;;;;;;7.50;3.03;;;27.90;38.50;;;;;;6179341;28;20515;-86
2022/05/03 14:05:34;;;;;;;2.33;1.75;;;27.80;38.60;;;;;;6178091;28;20057;-84
2022/05/03 14:08:37;;;;;;;2.65;2.15;;;27.90;39.30;;;;;;6177583;28;20057;-85
2022/05/03 14:11:39;;;;;;;5.65;2.00;;;27.80;39.70;;;;;;6176188;28;20420;-81
2022/05/03 14:14:40;;;;;;;6.00;2.50;;;27.90;39.30;;;;;;6167446;28;20133;-83
2022/05/03 14:17:42;;;;;;;5.38;2.13;;;27.80;38.40;;;;;;6174910;28;20051;-83
2022/05/03 14:20:44;;;;;;;4.70;2.15;;;27.80;38.80;;;;;;6175890;28;20047;-83
2022/05/03 14:23:47;;;;;;;3.00;2.20;;;27.80;39.50;;;;;;6175241;28;20530;-83
2022/05/03 14:26:49;;;;;;;5.43;3.38;;;27.80;39.50;;;;;;6175559;28;20061;-85
2022/05/03 14:29:51;;;;;;;3.15;2.33;;;28.10;39.80;;;;;;6174458;28;20047;-85
2022/05/03 14:32:53;;;;;;;5.90;2.58;;;28.30;40.00;;;;;;6176694;28;20527;-83
2022/05/03 14:35:55;;;;;;;6.68;2.45;;;28.50;39.90;;;;;;6176118;28;20066;-84
2022/05/03 14:39:01;;;;;;;3.70;2.13;;;28.80;39.60;;;;;;6175611;28;20138;-85
2022/05/03 14:42:08;;;;;;;2.75;2.20;;;29.10;38.70;;;;;;6199297;28;20061;-84
2022/05/03 14:45:12;;;;;;;2.63;2.13;;;29.50;38.50;;;;;;6201095;28;20061;-85
2022/05/03 14:48:15;;;;;;;12.00;2.33;;;30.00;37.80;;;;;;6214035;28;20046;-86
2022/05/03 14:51:18;;;;;;;6.55;2.00;;;30.30;37.10;;;;;;6222057;28;20054;-84
2022/05/03 14:54:23;;;;;;;2.53;1.92;;;30.50;37.00;;;;;;6205014;28;20055;-82
2022/05/03 15:04:30;;;;;;;6.13;2.72;;;31.10;37.40;;;;;;6200326;28;20046;-84
2022/05/03 15:08:12;;;;;;;4.75;2.33;;;31.10;36.50;;;;;;6204392;28;20192;-84
2022/05/03 15:11:17;;;;;;;6.05;2.17;;;31.00;36.10;;;;;;6202445;28;20512;-84
2022/05/03 15:14:20;;;;;;;5.40;2.30;;;31.30;36.20;;;;;;6196027;28;20512;-84
2022/05/03 15:17:23;;;;;;;5.97;2.15;;;31.60;36.00;;;;;;6203928;28;20138;-84
2022/05/03 15:20:29;;;;;;;3.85;2.25;;;31.70;34.90;;;;;;6203377;28;20050;-81
2022/05/03 15:26:54;;;;;;;1.67;1.40;;;31.80;34.40;;;;;;6201149;28;20050;-82
2022/05/03 15:29:57;;;;;;;4.00;1.40;;;31.70;34.70;;;;;;6209900;28;20046;-81
2022/05/03 15:33:01;;;;;;;4.40;2.28;;;31.40;34.50;;;;;;6201990;28;20050;-83
2022/05/03 15:36:05;;;;;;;2.85;1.60;;;31.10;34.90;;;;;;6202374;28;20047;-82
2022/05/03 15:39:08;;;;;;;3.03;1.38;;;30.50;35.70;;;;;;6201890;28;20051;-81
2022/05/03 15:42:13;;;;;;;4.15;1.20;;;29.20;36.20;;;;;;6202850;28;20046;-83
2022/05/03 15:45:17;;;;;;;20.42;5.00;;;27.20;39.10;;;;;;6202449;28;20440;-82
2022/05/03 15:49:13;;;;;;;0.00;0.00;;;25.10;43.70;;;;;;6201846;28;20042;-84
2022/05/03 15:52:15;;;;;;;0.00;0.00;;;21.90;62.50;;;;;;6205663;28;20101;-85
2022/05/03 15:55:22;;;;;;;0.08;0.08;;;18.70;79.90;;;;;;6211962;28;20626;-86
2022/05/03 15:58:26;;;;;;;0.00;0.00;;;17.10;91.70;;;;;;6210220;28;20412;-85
2022/05/03 16:01:28;;;;;;;0.30;0.30;;;16.20;95.90;;;;;;6208936;28;20050;-84
2022/05/03 16:04:30;;;;;;;0.90;0.80;;;15.70;97.60;;;;;;6208567;28;20050;-86
2022/05/03 16:11:50;;;;;;;0.00;0.00;;;14.90;99.90;;;;;;6152390;28;20453;-84
2022/05/03 16:15:13;;;;;;;0.00;0.00;;;14.60;99.90;;;;;;6145543;29;20123;-86
2022/05/03 16:26:46;;;;;;;0.00;0.00;;;14.50;99.90;;;;;;5955391;29;20137;-87
2022/05/03 16:29:56;;;;;;;0.00;0.00;;;14.50;99.90;;;;;;6160319;28;20043;-86
2022/05/03 16:33:54;;;;;;;;;;;;;;;;;;;;;
2022/05/03 16:57:27;;;;;;;0.00;0.00;;;14.60;99.90;;;;;;6687210;23;20102;-84
2022/05/03 17:00:29;;;;;;;0.00;0.00;;;14.70;99.90;;;;;;6210795;28;20056;-84
2022/05/03 17:03:31;;;;;;;0.00;0.00;;;14.70;99.90;;;;;;6227076;28;20046;-83
2022/05/03 17:06:35;;;;;;;0.10;0.10;;;14.80;99.90;;;;;;6237800;28;20053;-83
2022/05/03 17:09:37;;;;;;;0.00;0.00;;;14.80;99.90;;;;;;6230738;28;20050;-87
2022/05/03 17:13:14;;;;;;;0.00;0.00;;;14.60;99.90;;;;;;6229301;28;20046;-85
2022/05/03 17:17:02;;;;;;;0.00;0.00;;;14.60;99.90;;;;;;6238697;28;20050;-84
2022/05/03 17:23:33;;;;;;;0.00;0.00;;;14.80;99.90;;;;;;6198178;28;20050;-83
2022/05/03 17:26:39;;;;;;;0.00;0.00;;;14.80;99.90;;;;;;6228784;28;20093;-84
2022/05/03 17:29:43;;;;;;;0.00;0.00;;;14.80;99.90;;;;;;6217631;28;20042;-84
2022/05/03 17:32:45;;;;;;;0.00;0.00;;;14.80;99.90;;;;;;6212069;28;20049;-84
2022/05/03 17:35:48;;;;;;;0.00;0.00;;;14.70;99.90;;;;;;6257263;28;20045;-84
2022/05/03 17:38:51;;;;;;;0.82;0.40;;;14.90;99.90;;;;;;6256795;28;20046;-83
2022/05/03 17:41:53;;;;;;;0.08;0.08;;;15.00;99.90;;;;;;6249815;28;20049;-84